Flag for Germany

Past Weather in Brandenburg an der Havel, Brandenburg, Germany — Yesterday and Last 2 Weeks

Currently: 75 °F. Scattered clouds. (Weather station: Berlin-Schoenefeld, Germany). See more current weather

Past Weather in Brandenburg an der Havel — Graph

°F

Brandenburg an der Havel Temperature Yesterday

Maximum temperature yesterday: 82 °F (at 1:20 pm)
Minimum temperature yesterday: 64 °F (at 5:20 am)
Average temperature yesterday: 73 °F

High & Low Weather Summary for the Past Weeks

 TemperatureHumidityPressure
High88 °F (Jul 25, 3:50 pm)100% (Jul 14, 3:50 am)30.18 "Hg (Jul 14, 3:50 am)
Low54 °F (Jul 21, 4:20 am)35% (Jul 24, 3:20 pm)29.74 "Hg (Jul 13, 4:50 pm)
Average71 °F68%29.97 "Hg
* Reported Jul 13 12:20 pm — Jul 28 12:50 pm, Brandenburg an der Havel. Weather by CustomWeather, © 2021

Note: Actual official high and low records may vary slightly from our data, if they occured in-between our weather recording intervals... More about our weather records

Brandenburg an der Havel Weather History for the Previous 24 Hours

Scroll right to see more
 ConditionsComfort  
Time TempWeatherWind HumidityBarometerVisibility
12:50 pm
Wed, Jul 28
73 °FMild.9 mph57%29.86 "HgN/A
12:20 pm73 °FScattered clouds.8 mph61%29.86 "HgN/A
11:50 am73 °FScattered clouds.10 mph61%29.86 "HgN/A
11:20 am73 °FPassing clouds.10 mph61%29.86 "HgN/A
10:50 am72 °FScattered clouds.8 mph65%29.86 "HgN/A
10:20 am72 °FPartly sunny.12 mph65%29.86 "HgN/A
9:50 am70 °FScattered clouds.6 mph69%29.86 "HgN/A
9:20 am66 °FPartly sunny.7 mph78%29.86 "HgN/A
8:50 am66 °FSunny.5 mph78%29.86 "Hg10 mi
8:20 am66 °FPassing clouds.3 mph78%29.86 "HgN/A
7:50 am64 °FLight rain. Passing clouds.5 mph83%29.86 "HgN/A
7:20 am64 °FLight rain. Clear.5 mph78%29.86 "HgN/A
6:50 am66 °FSunny.6 mph73%29.86 "Hg10 mi
6:20 am64 °FLight rain. Clear.8 mph83%29.86 "HgN/A
5:50 am64 °FSunny.8 mph78%29.86 "Hg10 mi
5:20 am63 °FSunny.3 mph83%29.83 "Hg10 mi
4:50 am63 °FClear.5 mph83%29.86 "Hg10 mi
4:20 am64 °FClear.5 mph78%29.86 "Hg10 mi
3:50 am66 °FClear.5 mph68%29.86 "Hg10 mi
3:20 am66 °FClear.5 mph73%29.86 "Hg10 mi
2:50 am66 °FClear.3 mph73%29.86 "Hg10 mi
2:20 am68 °FClear.5 mph69%29.86 "Hg10 mi
1:50 am68 °FClear.5 mph69%29.86 "Hg10 mi
1:20 am68 °FClear.7 mph69%29.86 "Hg10 mi
12:50 am68 °FClear.7 mph69%29.86 "Hg10 mi
12:20 am70 °FClear.6 mph64%29.89 "Hg10 mi
11:50 pm
Tue, Jul 27
70 °FClear.8 mph64%29.89 "Hg10 mi
11:20 pm68 °FClear.7 mph69%29.89 "Hg10 mi
10:50 pm70 °FClear.7 mph64%29.89 "Hg10 mi
10:20 pm72 °FClear.7 mph57%29.86 "Hg10 mi
9:50 pm70 °FClear.6 mph60%29.86 "Hg10 mi
8:50 pm75 °FSunny.8 mph50%29.86 "Hg10 mi
8:20 pm77 °FSunny.8 mph47%29.86 "Hg10 mi
7:50 pm79 °FSunny.12 mph45%29.86 "Hg10 mi
7:20 pm79 °FSunny.12 mph45%29.86 "Hg10 mi
6:50 pm81 °FPassing clouds.13 mph42%29.86 "HgN/A
6:20 pm81 °FSunny.17 mph42%29.86 "Hg10 mi
5:50 pm81 °FPassing clouds.14 mph42%29.86 "HgN/A
5:20 pm81 °FSunny.15 mph42%29.86 "Hg10 mi
4:50 pm81 °FPassing clouds.14 mph45%29.86 "HgN/A
4:20 pm81 °FPassing clouds.16 mph42%29.86 "HgN/A
3:50 pm81 °FSunny.14 mph45%29.89 "Hg10 mi
3:20 pm81 °FSunny.17 mph48%29.89 "Hg10 mi
2:50 pm81 °FSunny.18 mph45%29.89 "Hg10 mi
2:20 pm79 °FSunny.15 mph48%29.89 "Hg10 mi
1:50 pm79 °FScattered clouds.16 mph48%29.89 "HgN/A
1:20 pm82 °FScattered clouds.16 mph40%29.89 "HgN/A
Weather by CustomWeather, © 2021

See weather overview